Time;durP1;ratioP1;P1;durP2;ratioP2;P2;SDS_P1;SDS_P2;PMS_P1;PMS_P2;Temp;Humidity;BMP_temperature;BMP_pressure;BME280_temperature;BME280_humidity;BME280_pressure;Samples;Min_cycle;Max_cycle;Signal;HPM_P1;HPM_P2
2022/09/19 00:01:34;;;;;;;4.88;1.35;;;;;;;9.25;100.00;100350.03;4937241;29;20032;-80
2022/09/19 00:04:02;;;;;;;4.32;1.33;;;;;;;9.32;100.00;100339.50;4981054;28;20038;-80
2022/09/19 00:06:29;;;;;;;3.95;1.42;;;;;;;9.31;100.00;100344.03;5078627;28;20028;-80
2022/09/19 00:08:56;;;;;;;2.85;1.00;;;;;;;9.21;100.00;100338.84;5063682;28;20028;-80
2022/09/19 00:11:22;;;;;;;4.45;1.25;;;;;;;9.19;100.00;100345.34;5079478;28;20124;-80
2022/09/19 00:13:50;;;;;;;1.60;1.25;;;;;;;9.26;100.00;100355.16;5075644;28;20096;-80
2022/09/19 00:16:58;;;;;;;5.43;1.55;;;;;;;9.16;100.00;100365.13;5077593;28;20063;-79
2022/09/19 00:19:33;;;;;;;10.60;1.48;;;;;;;9.19;100.00;100350.66;5074248;28;20045;-79
2022/09/19 00:22:20;;;;;;;2.75;0.90;;;;;;;9.21;100.00;100357.50;5072158;28;20047;-79
2022/09/19 00:24:49;;;;;;;5.38;1.80;;;;;;;9.20;100.00;100362.97;5070144;28;20101;-79
2022/09/19 00:27:28;;;;;;;6.90;1.70;;;;;;;9.18;100.00;100368.47;5079939;28;20036;-79
2022/09/19 00:30:18;;;;;;;3.55;1.33;;;;;;;9.11;100.00;100366.59;5061653;28;20050;-79
2022/09/19 00:32:59;;;;;;;7.97;1.55;;;;;;;9.12;100.00;100366.44;4998319;28;20046;-79
2022/09/19 00:35:24;;;;;;;5.93;1.33;;;;;;;9.14;100.00;100367.13;5001232;28;20057;-81
2022/09/19 00:37:49;;;;;;;2.87;1.70;;;;;;;9.14;100.00;100372.47;5011653;28;20422;-81
2022/09/19 00:40:15;;;;;;;3.03;1.40;;;;;;;9.08;100.00;100363.28;4980135;28;20034;-81
2022/09/19 00:46:25;;;;;;;3.47;1.27;;;;;;;9.06;100.00;100375.06;4954999;28;20052;-81
2022/09/19 00:48:57;;;;;;;4.47;1.25;;;;;;;9.06;100.00;100375.94;4991536;28;20033;-81
2022/09/19 00:51:31;;;;;;;6.10;2.03;;;;;;;9.03;100.00;100381.56;4998784;28;20076;-81
2022/09/19 00:54:00;;;;;;;5.10;1.48;;;;;;;8.96;100.00;100379.72;4991762;28;20057;-81
2022/09/19 00:56:26;;;;;;;6.50;1.90;;;;;;;8.96;100.00;100385.03;5010448;28;20046;-81
2022/09/19 00:58:57;;;;;;;3.33;1.45;;;;;;;8.94;100.00;100387.84;5008908;28;20038;-80
2022/09/19 01:01:24;;;;;;;2.22;1.20;;;;;;;8.95;100.00;100389.53;5011454;28;20042;-81
2022/09/19 01:03:49;;;;;;;4.47;1.25;;;;;;;8.91;100.00;100390.03;4982364;28;20072;-81
2022/09/19 01:06:39;;;;;;;3.08;1.60;;;;;;;8.90;100.00;100401.66;5011636;28;20046;-81
2022/09/19 01:09:14;;;;;;;6.50;1.80;;;;;;;8.91;100.00;100406.81;5009131;28;20036;-82
2022/09/19 01:12:05;;;;;;;5.50;1.75;;;;;;;8.85;100.00;100399.50;5074893;28;20028;-81
2022/09/19 01:15:08;;;;;;;3.03;1.58;;;;;;;8.87;100.00;100402.81;5068522;28;20025;-81
2022/09/19 01:17:45;;;;;;;5.50;1.45;;;;;;;8.82;100.00;100397.13;5061578;28;20335;-81
2022/09/19 01:20:52;;;;;;;3.35;1.73;;;;;;;8.77;100.00;100404.75;5056149;28;20025;-81
2022/09/19 01:23:57;;;;;;;9.27;2.38;;;;;;;8.84;100.00;100401.28;5074964;28;20115;-81
2022/09/19 01:26:59;;;;;;;8.93;1.52;;;;;;;8.82;100.00;100408.59;5068718;28;20040;-81
2022/09/19 01:29:47;;;;;;;6.03;2.05;;;;;;;8.85;100.00;100418.94;5070417;28;20029;-82
2022/09/19 01:32:18;;;;;;;4.77;1.30;;;;;;;8.85;100.00;100418.13;5067769;28;20055;-81
2022/09/19 01:38:19;;;;;;;5.53;1.42;;;;;;;8.86;100.00;100430.44;4939483;29;20036;-79
2022/09/19 01:40:51;;;;;;;4.43;1.80;;;;;;;8.84;100.00;100438.56;4937735;29;20130;-78
2022/09/19 01:43:19;;;;;;;3.92;1.75;;;;;;;8.83;100.00;100436.09;4917167;29;20573;-81
2022/09/19 01:49:06;;;;;;;2.78;1.42;;;;;;;8.86;100.00;100435.75;4923052;29;20590;-81
2022/09/19 01:51:45;;;;;;;4.53;1.48;;;;;;;8.79;100.00;100424.91;4938088;29;20465;-81
2022/09/19 01:54:56;;;;;;;6.45;1.33;;;;;;;8.81;100.00;100428.25;4935476;29;20032;-79
2022/09/19 01:57:50;;;;;;;17.15;2.55;;;;;;;8.77;100.00;100434.03;4932184;29;20048;-79
2022/09/19 02:04:50;;;;;;;7.90;1.98;;;;;;;8.65;100.00;100436.13;4937903;29;20725;-78
2022/09/19 02:07:44;;;;;;;9.02;2.20;;;;;;;8.61;100.00;100438.25;4933314;29;20040;-79
2022/09/19 02:11:00;;;;;;;7.35;1.52;;;;;;;8.64;100.00;100450.44;4925225;29;20593;-78
2022/09/19 02:14:24;;;;;;;4.88;2.08;;;;;;;8.61;100.00;100445.41;4833118;29;20061;-79
2022/09/19 02:17:23;;;;;;;1.60;1.08;;;;;;;8.58;100.00;100449.22;4945077;29;20059;-79
2022/09/19 02:20:07;;;;;;;2.80;1.52;;;;;;;8.58;100.00;100451.91;4933008;29;20064;-79
2022/09/19 02:23:10;;;;;;;2.33;1.30;;;;;;;8.55;100.00;100454.06;4933458;29;20457;-79
2022/09/19 02:26:19;;;;;;;4.60;1.70;;;;;;;8.52;100.00;100454.34;4876748;29;20047;-79
2022/09/19 02:28:54;;;;;;;4.80;1.45;;;;;;;8.52;100.00;100455.19;4892101;29;20062;-79
2022/09/19 02:31:31;;;;;;;5.13;1.40;;;;;;;8.57;100.00;100462.69;4890502;29;20051;-78
2022/09/19 02:34:10;;;;;;;1.95;1.20;;;;;;;8.56;100.00;100463.69;4882378;29;20037;-78
2022/09/19 02:37:03;;;;;;;2.92;1.30;;;;;;;8.58;100.00;100462.53;4882044;29;20044;-81
2022/09/19 02:39:43;;;;;;;3.58;1.50;;;;;;;8.51;100.00;100466.00;4874139;29;20135;-81
2022/09/19 02:42:11;;;;;;;3.55;1.77;;;;;;;8.50;100.00;100459.84;4882474;29;20073;-81
2022/09/19 02:44:52;;;;;;;4.03;1.37;;;;;;;8.52;100.00;100470.31;4868605;29;20037;-81
2022/09/19 02:47:27;;;;;;;7.88;1.55;;;;;;;8.56;100.00;100469.00;4884107;29;20040;-81
2022/09/19 02:50:24;;;;;;;5.10;1.60;;;;;;;8.43;100.00;100466.78;4923262;28;20040;-81
2022/09/19 02:52:53;;;;;;;3.20;1.52;;;;;;;8.45;100.00;100476.28;4997032;28;20038;-81
2022/09/19 02:55:28;;;;;;;4.88;1.27;;;;;;;8.41;100.00;100466.09;5036007;28;20033;-81
2022/09/19 02:57:58;;;;;;;7.03;1.40;;;;;;;8.47;100.00;100481.41;5032292;28;20038;-81
2022/09/19 03:00:25;;;;;;;3.10;1.55;;;;;;;8.34;100.00;100484.47;5022854;28;20036;-81
2022/09/19 03:04:11;;;;;;;4.22;1.48;;;;;;;8.40;100.00;100486.50;5055324;28;20033;-81
2022/09/19 03:05:53;;;;;;;6.40;1.75;;;;;;;8.36;100.00;100489.63;5074022;28;20517;-81
2022/09/19 03:08:24;;;;;;;5.40;1.42;;;;;;;8.32;100.00;100488.28;5070703;28;20044;-81
2022/09/19 03:11:06;;;;;;;;;;;;;;;;;;;;;
2022/09/19 03:13:57;;;;;;;2.67;1.65;;;;;;;8.31;100.00;100498.06;5070861;28;20044;-78
2022/09/19 03:16:27;;;;;;;8.45;1.83;;;;;;;8.34;100.00;100495.09;5070797;28;20413;-81
2022/09/19 03:18:55;;;;;;;3.55;1.40;;;;;;;8.28;100.00;100494.88;5071506;28;20091;-81
2022/09/19 03:21:23;;;;;;;2.17;1.38;;;;;;;8.28;100.00;100498.38;5055065;28;20017;-81
2022/09/19 03:23:51;;;;;;;2.78;1.25;;;;;;;8.28;100.00;100498.38;5074236;28;20323;-80
2022/09/19 03:26:26;;;;;;;6.97;1.73;;;;;;;8.12;100.00;100490.25;5069989;28;20025;-80
2022/09/19 03:28:54;;;;;;;9.63;1.40;;;;;;;8.17;100.00;100501.25;5073008;28;20103;-81
2022/09/19 03:31:21;;;;;;;6.35;1.30;;;;;;;8.06;100.00;100497.03;5070329;28;20027;-81
2022/09/19 03:33:48;;;;;;;2.30;1.40;;;;;;;8.04;100.00;100497.16;5070184;28;20048;-81
2022/09/19 03:36:14;;;;;;;3.47;1.48;;;;;;;7.97;100.00;100506.72;5069383;28;20438;-81
2022/09/19 03:38:45;;;;;;;;;;;;;;;8.10;100.00;100516.16;5072342;28;20035;-79
2022/09/19 03:41:22;;;;;;;2.35;1.25;;;;;;;8.08;100.00;100504.81;5059403;28;19925;-81
2022/09/19 03:43:53;;;;;;;4.05;1.52;;;;;;;8.01;100.00;100513.44;5068616;28;20036;-78
2022/09/19 03:46:22;;;;;;;3.25;1.40;;;;;;;7.99;100.00;100509.25;5071871;28;20120;-81
2022/09/19 03:48:49;;;;;;;5.28;1.55;;;;;;;7.95;100.00;100505.22;5072352;28;20135;-81
2022/09/19 03:51:16;;;;;;;7.95;1.80;;;;;;;7.98;100.00;100511.09;5073060;28;20069;-80
2022/09/19 03:53:44;;;;;;;3.10;1.35;;;;;;;8.03;100.00;100515.94;5074382;28;20115;-81
2022/09/19 03:56:11;;;;;;;4.65;1.70;;;;;;;8.00;100.00;100513.56;5072203;28;20029;-81
2022/09/19 03:58:37;;;;;;;3.10;1.30;;;;;;;7.94;100.00;100522.16;5079242;28;20087;-80
2022/09/19 04:01:06;;;;;;;3.35;1.70;;;;;;;7.96;100.00;100522.81;5069212;28;20052;-78
2022/09/19 04:03:37;;;;;;;2.28;1.17;;;;;;;7.90;100.00;100526.94;5076326;28;20048;-80
2022/09/19 04:06:16;;;;;;;4.75;1.88;;;;;;;7.92;100.00;100521.47;5069054;28;20070;-78
2022/09/19 04:08:41;;;;;;;5.68;1.83;;;;;;;7.92;100.00;100529.44;5070463;28;20032;-79
2022/09/19 04:11:12;;;;;;;8.02;1.70;;;;;;;7.96;100.00;100522.81;5071687;28;20405;-78
2022/09/19 04:13:38;;;;;;;7.38;1.80;;;;;;;7.95;100.00;100529.97;5069005;28;20035;-80
2022/09/19 04:16:14;;;;;;;2.17;1.50;;;;;;;7.89;100.00;100530.59;5066563;28;20112;-79
2022/09/19 04:19:10;;;;;;;3.58;1.67;;;;;;;7.86;100.00;100538.84;5077946;28;20542;-79
2022/09/19 04:22:46;;;;;;;5.28;2.13;;;;;;;7.92;100.00;100535.59;5078124;28;20091;-79
2022/09/19 04:25:40;;;;;;;7.07;1.73;;;;;;;7.87;100.00;100537.88;5035949;28;20087;-79
2022/09/19 04:28:35;;;;;;;4.60;1.80;;;;;;;7.85;100.00;100539.84;5019916;28;20048;-79
2022/09/19 04:34:02;;;;;;;2.55;1.50;;;;;;;7.79;100.00;100535.13;4979086;28;20039;-79
2022/09/19 04:37:05;;;;;;;8.55;1.45;;;;;;;7.74;100.00;100538.22;4966245;28;20077;-79
2022/09/19 04:44:38;;;;;;;2.85;1.63;;;;;;;7.66;100.00;100542.63;4963166;29;20110;-78
2022/09/19 04:55:16;;;;;;;6.93;1.05;;;;;;;7.68;100.00;100554.78;4774239;30;20085;-78
2022/09/19 04:58:40;;;;;;;;;;;;;;;;;;;;;
2022/09/19 05:05:07;;;;;;;9.27;1.50;;;;;;;7.67;100.00;100565.53;4723626;30;21043;-78
2022/09/19 05:08:21;;;;;;;;;;;;;;;;;;;;;
2022/09/19 05:11:55;;;;;;;5.25;1.95;;;;;;;7.82;100.00;100578.19;4689039;30;20045;-78
2022/09/19 05:18:38;;;;;;;1.80;1.20;;;;;;;7.84;100.00;100580.69;4613390;31;20072;-78
2022/09/19 05:21:56;;;;;;;3.42;1.00;;;;;;;7.90;100.00;100584.59;4635617;30;20150;-78
2022/09/19 05:25:03;;;;;;;;;;;;;;;7.91;100.00;100587.06;4666756;30;20059;-79
2022/09/19 05:27:56;;;;;;;2.67;1.00;;;;;;;7.94;100.00;100591.28;4662861;30;19939;-80
2022/09/19 05:30:24;;;;;;;5.53;1.23;;;;;;;7.89;100.00;100586.41;4657285;30;20042;-79
2022/09/19 05:32:50;;;;;;;3.53;1.20;;;;;;;7.89;100.00;100582.91;4709184;30;20061;-80
2022/09/19 05:35:27;;;;;;;7.93;1.30;;;;;;;7.96;100.00;100587.50;4711717;30;20062;-80
2022/09/19 05:38:11;;;;;;;7.55;1.10;;;;;;;8.07;100.00;100585.59;4729007;30;20055;-79
2022/09/19 05:41:45;;;;;;;7.03;1.33;;;;;;;8.17;100.00;100597.00;4761615;29;20112;-79
2022/09/19 05:44:54;;;;;;;15.02;1.92;;;;;;;8.23;100.00;100589.25;4821863;29;20053;-79
2022/09/19 05:47:20;;;;;;;4.72;1.40;;;;;;;8.30;100.00;100594.81;4823396;29;20088;-80
2022/09/19 05:49:45;;;;;;;8.23;1.27;;;;;;;8.38;100.00;100589.56;4854468;29;20034;-80
2022/09/19 05:55:08;;;;;;;10.90;2.05;;;;;;;8.50;100.00;100582.22;4999424;28;20038;-81
2022/09/19 05:58:38;;;;;;;3.63;1.05;;;;;;;8.55;100.00;100585.25;4974538;28;20062;-79
2022/09/19 06:01:08;;;;;;;3.28;1.38;;;;;;;9.38;100.00;100606.13;4975108;28;20034;-80
2022/09/19 06:03:34;;;;;;;5.60;1.38;;;;;;;10.60;100.00;100625.41;4952007;28;20037;-79
2022/09/19 06:06:11;;;;;;;6.00;1.55;;;;;;;11.50;100.00;100596.75;4969212;28;20125;-79
2022/09/19 06:08:38;;;;;;;9.52;1.35;;;;;;;11.92;100.00;100573.38;4975346;28;20034;-79
2022/09/19 06:11:05;;;;;;;5.13;1.13;;;;;;;12.07;100.00;100534.16;4973215;28;20092;-79
2022/09/19 06:16:20;;;;;;;4.55;1.00;;;;;;;12.18;100.00;100450.78;4978900;28;20046;-79
2022/09/19 06:19:06;;;;;;;3.70;0.88;;;;;;;12.10;100.00;100416.03;4984396;28;20121;-79
2022/09/19 06:21:32;;;;;;;7.70;1.13;;;;;;;11.80;100.00;100386.50;4982003;28;20330;-79
2022/09/19 06:24:01;;;;;;;4.80;1.30;;;;;;;12.39;100.00;100388.50;5011257;28;20017;-79
2022/09/19 06:26:27;;;;;;;10.70;0.95;;;;;;;12.70;100.00;100357.22;5036897;28;20046;-81
2022/09/19 06:28:56;;;;;;;5.28;1.70;;;;;;;13.04;100.00;100337.84;5047616;28;20044;-81
2022/09/19 06:31:22;;;;;;;3.42;1.00;;;;;;;13.26;100.00;100287.78;5082230;28;20025;-81
2022/09/19 06:40:54;;;;;;;7.78;1.48;;;;;;;13.29;100.00;100201.63;4953219;29;20031;-79
2022/09/19 06:43:51;;;;;;;6.32;1.45;;;;;;;13.32;100.00;100221.88;4921469;28;20185;-80
2022/09/19 06:46:40;;;;;;;4.70;0.98;;;;;;;13.50;100.00;100241.81;4949711;28;20042;-79
2022/09/19 06:53:18;;;;;;;10.82;1.30;;;;;;;13.24;100.00;100260.34;4947313;28;20484;-80
2022/09/19 06:59:18;;;;;;;11.30;2.55;;;;;;;13.17;100.00;100339.84;4859062;29;20047;-81
2022/09/19 07:01:47;;;;;;;10.67;1.13;;;;;;;13.45;100.00;100367.63;4855594;29;20081;-81
2022/09/19 07:04:13;;;;;;;6.88;0.95;;;;;;;13.35;100.00;100358.25;4841354;29;20041;-81
2022/09/19 07:07:17;;;;;;;6.82;1.02;;;;;;;12.59;100.00;100343.25;4853057;29;20056;-78
2022/09/19 07:10:08;;;;;;;7.95;1.10;;;;;;;12.37;100.00;100448.59;4860962;29;20053;-79
2022/09/19 07:12:37;;;;;;;3.05;1.10;;;;;;;12.41;100.00;100503.47;4850097;29;20037;-78
2022/09/19 07:15:26;;;;;;;5.68;0.90;;;;;;;12.65;100.00;100524.66;4893615;29;20569;-79
2022/09/19 07:17:55;;;;;;;7.50;1.50;;;;;;;12.91;100.00;100531.44;4928619;29;20105;-79
2022/09/19 07:20:25;;;;;;;7.88;1.38;;;;;;;12.58;100.00;100513.00;4949689;29;20042;-79
2022/09/19 07:23:34;;;;;;;3.97;1.10;;;;;;;12.57;100.00;100578.31;4965000;29;20058;-79
2022/09/19 07:27:18;;;;;;;6.68;1.05;;;;;;;12.67;100.00;100596.81;4929405;29;20087;-79
2022/09/19 07:29:46;;;;;;;8.23;1.60;;;;;;;12.59;100.00;100592.31;4915303;29;20183;-81
2022/09/19 07:32:29;;;;;;;6.60;1.30;;;;;;;12.79;100.00;100587.31;4929249;29;20020;-79
2022/09/19 07:34:56;;;;;;;12.43;2.28;;;;;;;12.85;100.00;100605.34;4941037;28;20236;-81
2022/09/19 07:41:52;;;;;;;7.32;0.73;;;;;;;13.09;100.00;100612.34;4990201;28;20598;-79
2022/09/19 07:44:35;;;;;;;8.32;2.22;;;;;;;13.36;100.00;100582.44;4983727;28;20169;-80
2022/09/19 07:47:43;;;;;;;8.20;1.58;;;;;;;13.70;100.00;100584.56;4980149;28;20079;-78
2022/09/19 07:50:38;;;;;;;10.30;1.10;;;;;;;14.21;100.00;100565.75;4977122;28;20435;-79
2022/09/19 07:53:17;;;;;;;7.80;1.75;;;;;;;13.97;100.00;100485.56;4959972;28;20436;-81
2022/09/19 07:55:48;;;;;;;3.58;0.93;;;;;;;14.22;100.00;100449.25;4971880;28;20035;-82
2022/09/19 07:58:16;;;;;;;4.50;0.88;;;;;;;13.92;100.00;100421.72;4941691;28;20042;-80
2022/09/19 08:05:01;;;;;;;3.83;0.77;;;;;;;14.80;100.00;100445.56;4865060;29;20080;-79
2022/09/19 08:07:55;;;;;;;14.10;1.23;;;;;;;14.74;100.00;100345.91;4862490;29;20041;-79
2022/09/19 08:10:21;;;;;;;3.20;1.03;;;;;;;15.24;100.00;100407.56;4884035;29;20049;-80
2022/09/19 08:12:48;;;;;;;5.00;1.00;;;;;;;16.12;100.00;100334.00;4886526;29;20074;-82
2022/09/19 08:15:19;;;;;;;7.50;1.20;;;;;;;16.83;100.00;100246.94;4887136;29;20076;-79
2022/09/19 08:18:40;;;;;;;5.82;1.00;;;;;;;17.98;100.00;100172.94;4923227;29;20538;-79
2022/09/19 08:21:11;;;;;;;8.43;1.33;;;;;;;17.29;100.00;99773.72;4926314;29;20051;-78
2022/09/19 08:23:36;;;;;;;4.25;0.82;;;;;;;17.43;100.00;99793.25;4925224;29;20031;-80
2022/09/19 08:26:04;;;;;;;4.55;1.00;;;;;;;18.66;100.00;99936.69;4930114;29;20024;-79
2022/09/19 08:28:30;;;;;;;4.68;1.55;;;;;;;18.17;100.00;99798.28;4923787;29;20135;-79
2022/09/19 08:31:03;;;;;;;5.85;1.25;;;;;;;17.64;100.00;99641.56;4935541;29;20095;-79
2022/09/19 08:33:32;;;;;;;4.90;1.30;;;;;;;17.96;100.00;99718.66;4927328;29;20035;-79
2022/09/19 08:36:07;;;;;;;8.90;1.37;;;;;;;18.20;100.00;99717.59;4947750;29;20398;-79
2022/09/19 08:38:32;;;;;;;2.53;0.70;;;;;;;18.11;100.00;99872.97;4945645;29;20036;-80
2022/09/19 08:41:23;;;;;;;3.87;1.00;;;;;;;19.01;100.00;99760.03;4999832;28;20035;-79
2022/09/19 08:44:21;;;;;;;5.75;1.13;;;;;;;19.94;100.00;99720.75;5072490;28;20089;-79
2022/09/19 08:46:46;;;;;;;4.85;1.20;;;;;;;20.02;96.36;99452.13;5071341;28;20029;-78
2022/09/19 08:49:19;;;;;;;4.33;1.17;;;;;;;19.95;100.00;99656.56;5057782;28;20046;-80
2022/09/19 08:52:24;;;;;;;3.38;1.23;;;;;;;20.05;94.84;99506.88;5061782;28;20077;-79
2022/09/19 08:54:54;;;;;;;3.42;1.00;;;;;;;20.44;95.12;99633.03;5060274;28;20028;-80
2022/09/19 08:57:32;;;;;;;5.05;1.20;;;;;;;19.99;92.62;99493.28;5063470;28;20099;-80
2022/09/19 09:00:10;;;;;;;4.00;0.68;;;;;;;19.85;91.02;99445.19;5058079;28;20024;-79
2022/09/19 09:02:36;;;;;;;4.57;1.02;;;;;;;19.46;94.48;99616.59;5061283;28;20024;-79
2022/09/19 09:05:05;;;;;;;5.28;1.30;;;;;;;19.84;94.92;99730.63;5059102;28;20025;-79
2022/09/19 09:07:51;;;;;;;;;;;;;;;19.44;87.84;99347.28;5042763;28;20104;-79
2022/09/19 09:10:47;;;;;;;4.00;0.70;;;;;;;19.57;86.57;99350.41;5052240;28;20358;-78
2022/09/19 09:13:32;;;;;;;3.95;1.50;;;;;;;19.55;85.12;99275.91;5063331;28;20509;-79
2022/09/19 09:16:26;;;;;;;2.28;1.35;;;;;;;20.28;92.24;99880.56;5062511;28;20039;-79
2022/09/19 09:19:17;;;;;;;2.67;1.10;;;;;;;20.39;87.80;99664.69;5064619;28;20029;-80
2022/09/19 09:21:56;;;;;;;3.28;0.93;;;;;;;20.37;83.08;99414.75;5055745;28;20253;-78
2022/09/19 09:24:33;;;;;;;3.53;0.85;;;;;;;20.69;86.84;99775.41;5086899;28;20044;-80
2022/09/19 09:27:24;;;;;;;5.55;0.90;;;;;;;19.88;85.08;99564.66;5069226;28;20067;-79
2022/09/19 09:30:04;;;;;;;5.45;1.50;;;;;;;18.44;86.21;99307.63;5068962;28;20028;-79
2022/09/19 09:32:40;;;;;;;3.55;0.80;;;;;;;19.25;91.43;99847.34;5070205;28;20095;-80
2022/09/19 09:35:35;;;;;;;1.65;0.60;;;;;;;18.91;87.52;99552.44;5046487;28;20028;-79
2022/09/19 09:38:47;;;;;;;3.58;1.00;;;;;;;19.60;90.11;99910.28;5064598;28;20035;-79
2022/09/19 09:41:50;;;;;;;3.17;0.57;;;;;;;19.46;88.04;99740.28;5070785;28;20213;-79
2022/09/19 09:44:23;;;;;;;3.35;1.33;;;;;;;19.18;87.91;99741.97;5067553;28;20083;-80
2022/09/19 09:46:58;;;;;;;3.53;1.33;;;;;;;18.71;92.32;99890.84;5069856;28;20091;-80
2022/09/19 09:49:30;;;;;;;2.92;0.85;;;;;;;18.68;86.65;99593.94;5077449;28;20020;-79
2022/09/19 09:52:30;;;;;;;3.10;0.60;;;;;;;18.16;88.88;99718.31;5075568;28;20024;-80
2022/09/19 09:58:25;;;;;;;2.75;0.65;;;;;;;19.67;81.75;99720.59;5091752;28;20068;-79
2022/09/19 10:05:03;;;;;;;2.72;0.57;;;;;;;20.39;77.56;99648.41;5021796;28;20147;-79
2022/09/19 10:08:18;;;;;;;3.42;0.85;;;;;;;20.09;76.90;99554.03;5052227;28;20033;-79
2022/09/19 10:10:46;;;;;;;3.17;0.67;;;;;;;20.89;74.01;99527.19;5059185;28;20028;-79
2022/09/19 10:13:27;;;;;;;1.55;0.50;;;;;;;21.24;75.10;99695.69;5058402;28;20620;-77
2022/09/19 10:16:02;;;;;;;2.38;0.65;;;;;;;20.62;69.36;99105.06;5038551;28;20029;-79
2022/09/19 10:18:43;;;;;;;0.93;0.40;;;;;;;21.01;67.43;99080.97;5057122;28;20028;-79
2022/09/19 10:21:13;;;;;;;3.03;0.40;;;;;;;21.49;68.17;99330.44;5055750;28;20064;-79
2022/09/19 10:23:46;;;;;;;1.00;0.43;;;;;;;21.86;66.94;99327.50;5036780;28;20035;-79
2022/09/19 10:26:27;;;;;;;2.63;0.50;;;;;;;20.51;67.95;99109.63;5058008;28;20395;-79
2022/09/19 10:29:02;;;;;;;2.58;0.52;;;;;;;19.27;73.71;99366.28;5042441;28;20119;-78
2022/09/19 10:31:46;;;;;;;1.45;0.43;;;;;;;19.80;72.58;99430.50;5075548;28;20048;-79
2022/09/19 10:34:32;;;;;;;0.88;0.40;;;;;;;20.73;69.16;99390.66;5042130;28;20033;-78
2022/09/19 10:37:02;;;;;;;1.60;0.93;;;;;;;21.33;63.23;98993.00;5040718;28;20035;-79
2022/09/19 10:39:30;;;;;;;2.58;0.50;;;;;;;21.61;62.05;99021.44;5038146;28;20064;-79
2022/09/19 10:42:02;;;;;;;0.68;0.38;;;;;;;22.17;60.83;99073.91;5056832;28;20412;-79
2022/09/19 10:44:30;;;;;;;3.88;0.50;;;;;;;22.25;60.98;99095.09;5041280;28;20043;-79
2022/09/19 10:47:01;;;;;;;0.52;0.32;;;;;;;21.70;58.22;98665.91;5042406;28;20016;-81
2022/09/19 10:49:52;;;;;;;0.52;0.17;;;;;;;20.80;60.34;98765.56;5063924;28;20481;-81
2022/09/19 10:52:33;;;;;;;2.47;0.40;;;;;;;20.36;60.97;98784.38;5057758;28;20027;-80
2022/09/19 10:55:02;;;;;;;1.15;0.40;;;;;;;20.48;58.50;98578.09;5038983;28;20056;-78
2022/09/19 10:58:45;;;;;;;;;;;;;;;;;;;;;
2022/09/19 11:02:32;;;;;;;0.28;0.28;;;;;;;22.59;60.12;99442.47;4922462;29;20099;-79
2022/09/19 11:05:09;;;;;;;1.05;0.63;;;;;;;23.12;56.04;99105.44;4915972;29;20146;-78
2022/09/19 11:07:56;;;;;;;4.40;0.45;;;;;;;22.46;55.82;98884.53;4949826;28;20038;-79
2022/09/19 11:10:45;;;;;;;1.92;0.40;;;;;;;21.68;56.09;98638.25;4942765;28;20035;-78
2022/09/19 11:13:32;;;;;;;0.32;0.30;;;;;;;21.97;55.42;98741.47;4947570;29;20462;-79
2022/09/19 11:16:29;;;;;;;0.65;0.30;;;;;;;22.27;56.61;99033.13;4951541;28;20031;-79
2022/09/19 11:19:19;;;;;;;0.50;0.30;;;;;;;22.24;55.95;98909.47;4937762;29;20082;-79
2022/09/19 11:21:57;;;;;;;1.67;0.93;;;;;;;22.13;57.70;99152.47;4936470;29;20039;-79
2022/09/19 11:24:49;;;;;;;2.05;0.38;;;;;;;22.04;58.27;99156.84;4949642;29;20138;-79
2022/09/19 11:27:23;;;;;;;1.45;0.40;;;;;;;21.77;54.85;98652.81;4942295;29;20078;-78
2022/09/19 11:30:13;;;;;;;1.33;0.40;;;;;;;21.30;55.40;98673.28;4925035;29;20241;-80
2022/09/19 11:32:56;;;;;;;1.45;0.65;;;;;;;20.07;57.51;98553.94;4953008;29;20027;-80
2022/09/19 11:35:44;;;;;;;1.42;0.52;;;;;;;20.30;58.49;98883.84;4955630;28;20042;-80
2022/09/19 11:50:25;;;;;;;;;;;;;;;;;;;;;
2022/09/19 11:54:07;;;;;;;2.20;0.80;;;;;;;18.37;65.06;99315.09;5012991;28;20198;-78
2022/09/19 12:00:26;;;;;;;1.08;0.50;;;;;;;18.70;66.93;99659.41;4997534;28;20064;-79
2022/09/19 12:03:24;;;;;;;2.05;0.50;;;;;;;19.82;63.83;99641.50;4975770;28;20054;-78
2022/09/19 12:06:36;;;;;;;1.40;0.65;;;;;;;20.35;62.32;99606.66;4977519;28;20038;-78
2022/09/19 12:09:17;;;;;;;1.85;0.40;;;;;;;21.40;60.93;99759.13;4982347;28;20117;-81
2022/09/19 12:12:00;;;;;;;2.67;0.45;;;;;;;21.65;60.51;99730.53;4968887;28;20042;-78
2022/09/19 12:18:29;;;;;;;4.65;0.45;;;;;;;20.66;61.19;99496.63;4970872;28;20050;-81
2022/09/19 12:21:00;;;;;;;2.45;0.65;;;;;;;19.66;62.70;99285.75;4955095;28;20031;-79
2022/09/19 12:26:49;;;;;;;0.93;0.30;;;;;;;18.50;65.66;99349.88;4945844;28;20536;-78
2022/09/19 12:29:33;;;;;;;1.33;0.40;;;;;;;18.64;65.03;99419.81;4947400;29;20512;-78
2022/09/19 12:32:27;;;;;;;0.30;0.20;;;;;;;18.18;65.58;99267.81;4933228;29;20047;-78
2022/09/19 12:35:04;;;;;;;0.30;0.30;;;;;;;18.93;66.98;99751.25;4927589;29;20055;-78
2022/09/19 12:38:03;;;;;;;2.67;0.55;;;;;;;20.12;64.21;99806.34;4973475;28;20038;-78
2022/09/19 12:40:42;;;;;;;0.45;0.30;;;;;;;21.45;65.72;100280.50;5001901;28;20030;-80
2022/09/19 12:43:09;;;;;;;2.45;0.45;;;;;;;20.90;58.99;99279.25;4989972;28;20035;-80
2022/09/19 12:45:53;;;;;;;4.78;0.60;;;;;;;20.23;61.16;99385.41;4994481;28;20033;-80
2022/09/19 12:48:34;;;;;;;3.00;0.40;;;;;;;20.02;62.08;99448.63;4990836;28;20038;-80
2022/09/19 12:51:28;;;;;;;0.45;0.20;;;;;;;19.85;62.33;99448.69;4988213;28;20415;-78
2022/09/19 12:54:13;;;;;;;1.45;0.30;;;;;;;19.23;60.21;98962.06;4977467;28;20036;-78
2022/09/19 12:56:46;;;;;;;0.75;0.13;;;;;;;17.81;64.07;98993.00;5065107;28;20032;-78
2022/09/19 12:59:24;;;;;;;0.52;0.40;;;;;;;17.16;65.02;98963.06;5033198;28;20600;-80
2022/09/19 13:01:55;;;;;;;1.38;0.17;;;;;;;16.90;65.14;98942.19;5068855;28;20481;-79
2022/09/19 13:04:38;;;;;;;3.15;0.50;;;;;;;16.84;65.86;99024.84;5071634;28;20037;-79
2022/09/19 13:07:18;;;;;;;0.95;0.30;;;;;;;16.65;67.48;99200.19;5066279;28;20057;-80
2022/09/19 13:09:51;;;;;;;1.73;0.30;;;;;;;16.57;68.86;99313.72;5058544;28;20451;-80
2022/09/19 13:12:25;;;;;;;1.42;0.30;;;;;;;16.38;70.64;99422.63;5054077;28;20270;-80
2022/09/19 13:15:36;;;;;;;1.10;0.40;;;;;;;16.48;72.23;99613.31;5064930;28;20036;-78
2022/09/19 13:24:09;;;;;;;;;;;;;;;;;;;;;
2022/09/19 13:26:56;;;;;;;4.53;0.50;;;;;;;16.25;73.10;99652.59;4998911;28;20053;-78
2022/09/19 13:29:27;;;;;;;1.92;0.20;;;;;;;16.10;74.73;99731.03;5005379;28;20054;-78
2022/09/19 13:32:02;;;;;;;1.65;0.30;;;;;;;16.01;74.98;99733.22;5005136;28;20065;-77
2022/09/19 13:34:33;;;;;;;3.60;0.30;;;;;;;16.22;75.30;99838.84;4988436;28;20137;-79
2022/09/19 13:41:41;;;;;;;1.02;0.35;;;;;;;16.09;76.41;99873.97;4965898;28;20110;-78
2022/09/19 13:44:12;;;;;;;1.88;0.28;;;;;;;16.02;77.97;99966.38;4912821;29;20510;-78
2022/09/19 13:47:05;;;;;;;1.17;0.38;;;;;;;15.78;84.10;100206.66;4898931;29;20050;-78
2022/09/19 13:49:42;;;;;;;3.30;0.50;;;;;;;16.08;82.25;100185.47;4862877;29;20041;-77
2022/09/19 13:52:15;;;;;;;2.17;0.50;;;;;;;16.13;80.44;100060.97;4893867;29;20601;-79
2022/09/19 13:54:50;;;;;;;4.18;0.60;;;;;;;16.25;83.88;100298.97;4906383;29;20525;-77
2022/09/19 13:57:25;;;;;;;0.80;0.30;;;;;;;16.15;88.92;100485.19;4929196;29;20055;-78
2022/09/19 14:00:07;;;;;;;1.50;0.28;;;;;;;16.19;85.11;100262.09;4925075;29;20078;-78
2022/09/19 14:02:40;;;;;;;0.75;0.30;;;;;;;16.11;89.39;100438.19;4926142;29;20048;-78
2022/09/19 14:05:20;;;;;;;1.60;0.50;;;;;;;16.24;89.18;100430.09;4908085;29;20140;-78
2022/09/19 14:07:54;;;;;;;3.45;0.75;;;;;;;16.30;89.94;100427.63;4928503;29;20050;-78
2022/09/19 14:10:39;;;;;;;2.10;0.40;;;;;;;16.21;92.78;100507.81;4932329;29;20047;-80
2022/09/19 14:13:28;;;;;;;3.53;0.50;;;;;;;15.99;96.49;100569.91;4930722;29;20078;-78
2022/09/19 14:16:07;;;;;;;1.85;0.88;;;;;;;16.15;95.13;100519.38;4938115;28;20038;-78
2022/09/19 14:18:35;;;;;;;1.65;0.47;;;;;;;15.86;95.91;100456.78;4984682;28;20157;-78
2022/09/19 14:21:03;;;;;;;1.98;0.40;;;;;;;15.83;100.00;100602.56;5051184;28;20570;-79
2022/09/19 14:23:44;;;;;;;1.77;0.63;;;;;;;15.62;99.01;100469.75;5069814;28;20035;-78
2022/09/19 14:26:13;;;;;;;1.77;0.30;;;;;;;15.52;100.00;100598.44;5051628;28;20195;-78
2022/09/19 14:29:16;;;;;;;3.47;0.50;;;;;;;15.54;100.00;100620.59;5039919;28;20035;-78